sensor_id;sensor_type;location;lat;lon;timestamp;pressure;altitude;pressure_sealevel;temperature;humidity
76998;BME280;65930;48.874;10.734;2023-04-29T00:01:04;95671.59;;;11.06;95.97
76998;BME280;65930;48.874;10.734;2023-04-29T00:03:32;95684.16;;;11.18;95.72
76998;BME280;65930;48.874;10.734;2023-04-29T00:06:01;95685.59;;;11.29;96.18
76998;BME280;65930;48.874;10.734;2023-04-29T00:08:29;95680.53;;;11.24;95.65
76998;BME280;65930;48.874;10.734;2023-04-29T00:10:58;95682.41;;;11.31;95.56
76998;BME280;65930;48.874;10.734;2023-04-29T00:13:27;95678.06;;;11.30;95.34
76998;BME280;65930;48.874;10.734;2023-04-29T00:15:55;95686.06;;;11.24;95.12
76998;BME280;65930;48.874;10.734;2023-04-29T00:18:24;95673.19;;;11.41;95.84
76998;BME280;65930;48.874;10.734;2023-04-29T00:20:52;95671.81;;;11.22;95.55
76998;BME280;65930;48.874;10.734;2023-04-29T00:23:20;95673.84;;;11.18;95.71
76998;BME280;65930;48.874;10.734;2023-04-29T00:25:48;95670.50;;;11.00;93.71
76998;BME280;65930;48.874;10.734;2023-04-29T00:28:18;95668.50;;;11.00;93.97
76998;BME280;65930;48.874;10.734;2023-04-29T00:30:49;95670.22;;;10.87;93.35
76998;BME280;65930;48.874;10.734;2023-04-29T00:33:17;95674.81;;;10.64;93.30
76998;BME280;65930;48.874;10.734;2023-04-29T00:35:45;95662.53;;;10.65;94.60
76998;BME280;65930;48.874;10.734;2023-04-29T00:38:13;95660.19;;;10.63;95.67
76998;BME280;65930;48.874;10.734;2023-04-29T00:40:43;95676.06;;;10.55;94.50
76998;BME280;65930;48.874;10.734;2023-04-29T00:43:11;95665.81;;;10.52;93.39
76998;BME280;65930;48.874;10.734;2023-04-29T00:45:40;95667.88;;;10.41;94.70
76998;BME280;65930;48.874;10.734;2023-04-29T00:48:11;95658.81;;;10.37;95.43
76998;BME280;65930;48.874;10.734;2023-04-29T00:50:40;95664.78;;;10.36;95.10
76998;BME280;65930;48.874;10.734;2023-04-29T00:53:09;95667.50;;;10.39;95.92
76998;BME280;65930;48.874;10.734;2023-04-29T00:55:40;95666.72;;;10.39;94.43
76998;BME280;65930;48.874;10.734;2023-04-29T00:58:08;95671.09;;;10.36;94.71
76998;BME280;65930;48.874;10.734;2023-04-29T01:00:37;95669.78;;;10.51;95.76
76998;BME280;65930;48.874;10.734;2023-04-29T01:03:07;95661.78;;;10.60;94.29
76998;BME280;65930;48.874;10.734;2023-04-29T01:05:38;95676.81;;;10.59;94.59
76998;BME280;65930;48.874;10.734;2023-04-29T01:08:19;95672.81;;;10.68;94.04
76998;BME280;65930;48.874;10.734;2023-04-29T01:10:54;95668.13;;;10.57;93.38
76998;BME280;65930;48.874;10.734;2023-04-29T01:13:30;95667.13;;;10.37;93.48
76998;BME280;65930;48.874;10.734;2023-04-29T01:16:03;95671.34;;;10.52;94.45
76998;BME280;65930;48.874;10.734;2023-04-29T01:18:40;95661.06;;;10.53;95.22
76998;BME280;65930;48.874;10.734;2023-04-29T01:21:12;95665.47;;;10.88;95.85
76998;BME280;65930;48.874;10.734;2023-04-29T01:23:42;95673.84;;;10.81;96.33
76998;BME280;65930;48.874;10.734;2023-04-29T01:26:11;95657.88;;;10.54;95.22
76998;BME280;65930;48.874;10.734;2023-04-29T01:29:00;95678.16;;;10.85;96.52
76998;BME280;65930;48.874;10.734;2023-04-29T01:31:37;95657.78;;;10.65;95.78
76998;BME280;65930;48.874;10.734;2023-04-29T01:34:15;95675.13;;;10.73;95.97
76998;BME280;65930;48.874;10.734;2023-04-29T01:37:04;95677.38;;;10.85;96.39
76998;BME280;65930;48.874;10.734;2023-04-29T01:39:43;95682.16;;;10.81;96.04
76998;BME280;65930;48.874;10.734;2023-04-29T01:42:17;95668.81;;;10.72;96.40
76998;BME280;65930;48.874;10.734;2023-04-29T01:44:52;95684.97;;;10.77;96.29
76998;BME280;65930;48.874;10.734;2023-04-29T01:47:23;95670.69;;;10.79;96.25
76998;BME280;65930;48.874;10.734;2023-04-29T01:49:52;95679.00;;;10.79;97.46
76998;BME280;65930;48.874;10.734;2023-04-29T01:52:20;95675.00;;;10.83;97.14
76998;BME280;65930;48.874;10.734;2023-04-29T01:54:51;95677.47;;;10.78;97.00
76998;BME280;65930;48.874;10.734;2023-04-29T01:57:19;95671.75;;;10.92;97.22
76998;BME280;65930;48.874;10.734;2023-04-29T01:59:47;95662.31;;;10.86;96.63
76998;BME280;65930;48.874;10.734;2023-04-29T02:02:15;95680.84;;;10.92;96.23
76998;BME280;65930;48.874;10.734;2023-04-29T02:04:47;95680.00;;;10.99;97.14
76998;BME280;65930;48.874;10.734;2023-04-29T02:07:16;95681.72;;;10.86;97.89
76998;BME280;65930;48.874;10.734;2023-04-29T02:09:44;95677.34;;;10.88;97.64
76998;BME280;65930;48.874;10.734;2023-04-29T02:12:14;95682.78;;;10.99;97.67
76998;BME280;65930;48.874;10.734;2023-04-29T02:14:42;95682.63;;;11.13;97.91
76998;BME280;65930;48.874;10.734;2023-04-29T02:17:10;95682.22;;;11.11;97.26
76998;BME280;65930;48.874;10.734;2023-04-29T02:19:38;95685.78;;;11.12;97.53
76998;BME280;65930;48.874;10.734;2023-04-29T02:22:07;95677.91;;;11.10;97.71
76998;BME280;65930;48.874;10.734;2023-04-29T02:24:38;95682.56;;;11.17;97.80
76998;BME280;65930;48.874;10.734;2023-04-29T02:27:06;95684.03;;;11.28;97.62
76998;BME280;65930;48.874;10.734;2023-04-29T02:29:36;95681.72;;;11.23;97.79
76998;BME280;65930;48.874;10.734;2023-04-29T02:32:04;95669.84;;;11.23;98.01
76998;BME280;65930;48.874;10.734;2023-04-29T02:34:33;95684.03;;;11.28;97.58
76998;BME280;65930;48.874;10.734;2023-04-29T02:37:01;95680.88;;;11.26;98.36
76998;BME280;65930;48.874;10.734;2023-04-29T02:39:30;95679.31;;;11.25;97.99
76998;BME280;65930;48.874;10.734;2023-04-29T02:41:58;95684.78;;;11.32;97.83
76998;BME280;65930;48.874;10.734;2023-04-29T02:44:27;95679.59;;;11.34;98.21
76998;BME280;65930;48.874;10.734;2023-04-29T02:46:58;95674.53;;;11.26;97.53
76998;BME280;65930;48.874;10.734;2023-04-29T02:49:26;95698.34;;;11.23;97.47
76998;BME280;65930;48.874;10.734;2023-04-29T02:51:55;95690.31;;;11.32;98.24
76998;BME280;65930;48.874;10.734;2023-04-29T02:54:24;95681.75;;;11.20;97.68
76998;BME280;65930;48.874;10.734;2023-04-29T02:56:52;95690.78;;;11.27;98.22
76998;BME280;65930;48.874;10.734;2023-04-29T02:59:20;95696.31;;;11.27;97.42
76998;BME280;65930;48.874;10.734;2023-04-29T03:01:48;95694.25;;;11.35;98.25
76998;BME280;65930;48.874;10.734;2023-04-29T03:04:18;95686.25;;;11.40;97.81
76998;BME280;65930;48.874;10.734;2023-04-29T03:06:46;95694.13;;;11.45;97.86
76998;BME280;65930;48.874;10.734;2023-04-29T03:09:14;95683.53;;;11.37;98.09
76998;BME280;65930;48.874;10.734;2023-04-29T03:11:42;95689.03;;;11.40;97.14
76998;BME280;65930;48.874;10.734;2023-04-29T03:14:11;95680.63;;;11.47;98.09
76998;BME280;65930;48.874;10.734;2023-04-29T03:16:39;95686.25;;;11.40;97.54
76998;BME280;65930;48.874;10.734;2023-04-29T03:19:08;95683.59;;;11.33;98.24
76998;BME280;65930;48.874;10.734;2023-04-29T03:21:38;95681.56;;;11.34;97.83
76998;BME280;65930;48.874;10.734;2023-04-29T03:24:06;95687.66;;;11.56;97.59
76998;BME280;65930;48.874;10.734;2023-04-29T03:26:34;95671.94;;;11.45;96.60
76998;BME280;65930;48.874;10.734;2023-04-29T03:29:02;95686.03;;;11.28;97.18
76998;BME280;65930;48.874;10.734;2023-04-29T03:31:30;95665.44;;;11.25;97.24
76998;BME280;65930;48.874;10.734;2023-04-29T03:33:59;95696.66;;;11.33;97.12
76998;BME280;65930;48.874;10.734;2023-04-29T03:36:28;95681.63;;;11.30;97.15
76998;BME280;65930;48.874;10.734;2023-04-29T03:38:57;95679.00;;;11.20;97.91
76998;BME280;65930;48.874;10.734;2023-04-29T03:41:25;95670.75;;;11.13;97.81
76998;BME280;65930;48.874;10.734;2023-04-29T03:43:53;95653.78;;;11.07;97.75
76998;BME280;65930;48.874;10.734;2023-04-29T03:46:27;95663.66;;;11.08;97.96
76998;BME280;65930;48.874;10.734;2023-04-29T03:48:55;95658.28;;;10.94;97.61
76998;BME280;65930;48.874;10.734;2023-04-29T03:51:24;95656.69;;;10.93;98.08
76998;BME280;65930;48.874;10.734;2023-04-29T03:53:54;95690.19;;;11.09;98.28
76998;BME280;65930;48.874;10.734;2023-04-29T03:56:25;95676.97;;;10.83;98.02
76998;BME280;65930;48.874;10.734;2023-04-29T03:58:53;95662.38;;;10.79;97.84
76998;BME280;65930;48.874;10.734;2023-04-29T04:01:21;95688.06;;;10.86;98.02
76998;BME280;65930;48.874;10.734;2023-04-29T04:03:59;95688.47;;;10.85;98.50
76998;BME280;65930;48.874;10.734;2023-04-29T04:06:28;95666.44;;;10.71;97.88
76998;BME280;65930;48.874;10.734;2023-04-29T04:08:56;95696.06;;;10.77;97.92
76998;BME280;65930;48.874;10.734;2023-04-29T04:11:26;95673.69;;;10.57;98.22
76998;BME280;65930;48.874;10.734;2023-04-29T04:13:54;95682.31;;;10.67;97.97
76998;BME280;65930;48.874;10.734;2023-04-29T04:16:22;95700.41;;;10.75;98.26
76998;BME280;65930;48.874;10.734;2023-04-29T04:18:51;95694.53;;;10.69;98.42
76998;BME280;65930;48.874;10.734;2023-04-29T04:21:19;95680.84;;;10.51;98.29
76998;BME280;65930;48.874;10.734;2023-04-29T04:23:47;95704.16;;;10.57;98.31
76998;BME280;65930;48.874;10.734;2023-04-29T04:26:15;95698.97;;;10.59;97.86
76998;BME280;65930;48.874;10.734;2023-04-29T04:28:45;95684.75;;;10.57;97.65
76998;BME280;65930;48.874;10.734;2023-04-29T04:31:13;95683.19;;;10.56;97.53
76998;BME280;65930;48.874;10.734;2023-04-29T04:33:41;95711.50;;;10.75;97.90
76998;BME280;65930;48.874;10.734;2023-04-29T04:36:09;95719.50;;;10.66;97.75
76998;BME280;65930;48.874;10.734;2023-04-29T04:38:38;95709.97;;;10.70;97.75
76998;BME280;65930;48.874;10.734;2023-04-29T04:41:06;95728.09;;;10.78;97.54
76998;BME280;65930;48.874;10.734;2023-04-29T04:43:34;95702.41;;;10.74;97.46
76998;BME280;65930;48.874;10.734;2023-04-29T04:46:10;95717.34;;;10.84;97.38
76998;BME280;65930;48.874;10.734;2023-04-29T04:48:39;95713.78;;;10.87;97.50
76998;BME280;65930;48.874;10.734;2023-04-29T04:51:08;95714.44;;;10.98;96.83
76998;BME280;65930;48.874;10.734;2023-04-29T04:53:36;95727.16;;;10.95;96.94
76998;BME280;65930;48.874;10.734;2023-04-29T04:56:05;95723.63;;;10.91;96.83
76998;BME280;65930;48.874;10.734;2023-04-29T04:58:34;95728.75;;;10.93;96.77
76998;BME280;65930;48.874;10.734;2023-04-29T05:01:02;95711.06;;;10.80;97.15
76998;BME280;65930;48.874;10.734;2023-04-29T05:03:32;95706.72;;;10.79;96.86
76998;BME280;65930;48.874;10.734;2023-04-29T05:06:01;95731.50;;;10.93;96.71
76998;BME280;65930;48.874;10.734;2023-04-29T05:08:30;95703.94;;;10.82;96.45
76998;BME280;65930;48.874;10.734;2023-04-29T05:10:58;95714.97;;;10.86;96.32
76998;BME280;65930;48.874;10.734;2023-04-29T05:13:26;95736.25;;;10.96;96.45
76998;BME280;65930;48.874;10.734;2023-04-29T05:15:54;95738.59;;;11.01;96.53
76998;BME280;65930;48.874;10.734;2023-04-29T05:18:23;95738.25;;;10.92;96.50
76998;BME280;65930;48.874;10.734;2023-04-29T05:20:52;95739.34;;;11.01;96.73
76998;BME280;65930;48.874;10.734;2023-04-29T05:23:20;95718.16;;;10.84;96.00
76998;BME280;65930;48.874;10.734;2023-04-29T05:25:49;95736.63;;;10.98;96.50
76998;BME280;65930;48.874;10.734;2023-04-29T05:28:18;95746.69;;;11.22;95.57
76998;BME280;65930;48.874;10.734;2023-04-29T05:30:49;95758.91;;;11.28;95.63
76998;BME280;65930;48.874;10.734;2023-04-29T05:33:18;95736.03;;;11.17;95.84
76998;BME280;65930;48.874;10.734;2023-04-29T05:35:46;95730.50;;;11.17;95.35
76998;BME280;65930;48.874;10.734;2023-04-29T05:38:15;95731.63;;;11.23;95.88
76998;BME280;65930;48.874;10.734;2023-04-29T05:40:43;95767.03;;;11.46;95.46
76998;BME280;65930;48.874;10.734;2023-04-29T05:43:12;95767.91;;;11.36;96.30
76998;BME280;65930;48.874;10.734;2023-04-29T05:45:40;95776.25;;;11.36;96.20
76998;BME280;65930;48.874;10.734;2023-04-29T05:48:08;95772.34;;;11.30;96.70
76998;BME280;65930;48.874;10.734;2023-04-29T05:50:37;95741.97;;;11.16;97.04
76998;BME280;65930;48.874;10.734;2023-04-29T05:53:05;95747.41;;;11.26;96.51
76998;BME280;65930;48.874;10.734;2023-04-29T05:55:34;95760.00;;;11.34;97.08
76998;BME280;65930;48.874;10.734;2023-04-29T05:58:03;95782.44;;;11.51;96.39
76998;BME280;65930;48.874;10.734;2023-04-29T06:00:31;95780.34;;;11.62;96.50
76998;BME280;65930;48.874;10.734;2023-04-29T06:02:59;95777.19;;;11.60;95.89
76998;BME280;65930;48.874;10.734;2023-04-29T06:05:28;95777.84;;;11.71;94.69
76998;BME280;65930;48.874;10.734;2023-04-29T06:07:57;95753.50;;;11.52;95.55
76998;BME280;65930;48.874;10.734;2023-04-29T06:10:25;95762.16;;;11.54;95.28
76998;BME280;65930;48.874;10.734;2023-04-29T06:12:55;95784.97;;;11.75;95.11
76998;BME280;65930;48.874;10.734;2023-04-29T06:15:26;95794.81;;;11.80;95.44
76998;BME280;65930;48.874;10.734;2023-04-29T06:17:54;95791.19;;;11.83;95.82
76998;BME280;65930;48.874;10.734;2023-04-29T06:20:23;95781.75;;;11.77;95.95
76998;BME280;65930;48.874;10.734;2023-04-29T06:22:51;95804.56;;;11.91;96.40
76998;BME280;65930;48.874;10.734;2023-04-29T06:25:19;95784.94;;;11.72;95.43
76998;BME280;65930;48.874;10.734;2023-04-29T06:27:47;95806.72;;;11.77;96.24
76998;BME280;65930;48.874;10.734;2023-04-29T06:30:18;95783.56;;;11.57;96.95
76998;BME280;65930;48.874;10.734;2023-04-29T06:32:46;95817.47;;;11.71;98.33
76998;BME280;65930;48.874;10.734;2023-04-29T06:35:14;95821.44;;;11.74;98.09
76998;BME280;65930;48.874;10.734;2023-04-29T06:37:43;95813.34;;;11.86;98.23
76998;BME280;65930;48.874;10.734;2023-04-29T06:40:11;95818.84;;;11.90;97.78
76998;BME280;65930;48.874;10.734;2023-04-29T06:42:40;95816.13;;;11.86;97.25
76998;BME280;65930;48.874;10.734;2023-04-29T06:45:09;95809.44;;;11.80;98.44
76998;BME280;65930;48.874;10.734;2023-04-29T06:47:39;95799.44;;;11.90;97.71
76998;BME280;65930;48.874;10.734;2023-04-29T06:50:08;95819.53;;;12.01;96.78
76998;BME280;65930;48.874;10.734;2023-04-29T06:52:37;95802.59;;;11.92;96.57
76998;BME280;65930;48.874;10.734;2023-04-29T06:55:05;95795.50;;;11.87;95.78
76998;BME280;65930;48.874;10.734;2023-04-29T06:57:34;95792.31;;;11.89;95.67
76998;BME280;65930;48.874;10.734;2023-04-29T07:00:03;95821.88;;;12.33;94.86
76998;BME280;65930;48.874;10.734;2023-04-29T07:02:31;95810.09;;;12.25;95.48
76998;BME280;65930;48.874;10.734;2023-04-29T07:05:02;95797.13;;;12.15;94.82
76998;BME280;65930;48.874;10.734;2023-04-29T07:07:30;95796.41;;;12.11;93.78
76998;BME280;65930;48.874;10.734;2023-04-29T07:09:58;95792.97;;;12.30;93.51
76998;BME280;65930;48.874;10.734;2023-04-29T07:12:27;95813.69;;;12.53;92.22
76998;BME280;65930;48.874;10.734;2023-04-29T07:14:56;95814.47;;;12.80;90.14
76998;BME280;65930;48.874;10.734;2023-04-29T07:17:28;95831.44;;;13.12;88.99
76998;BME280;65930;48.874;10.734;2023-04-29T07:19:56;95816.97;;;13.25;88.51
76998;BME280;65930;48.874;10.734;2023-04-29T07:22:26;95823.34;;;13.45;85.76
76998;BME280;65930;48.874;10.734;2023-04-29T07:24:55;95789.97;;;13.21;85.27
76998;BME280;65930;48.874;10.734;2023-04-29T07:27:23;95828.31;;;13.34;85.35
76998;BME280;65930;48.874;10.734;2023-04-29T07:29:51;95795.25;;;12.89;86.53
76998;BME280;65930;48.874;10.734;2023-04-29T07:32:20;95814.53;;;12.76;86.77
76998;BME280;65930;48.874;10.734;2023-04-29T07:34:48;95819.97;;;12.84;88.61
76998;BME280;65930;48.874;10.734;2023-04-29T07:37:18;95804.47;;;13.09;87.91
76998;BME280;65930;48.874;10.734;2023-04-29T07:39:48;95837.06;;;13.55;87.10
76998;BME280;65930;48.874;10.734;2023-04-29T07:42:17;95815.22;;;13.54;84.97
76998;BME280;65930;48.874;10.734;2023-04-29T07:44:45;95842.63;;;13.55;84.73
76998;BME280;65930;48.874;10.734;2023-04-29T07:47:14;95852.25;;;13.28;84.83
76998;BME280;65930;48.874;10.734;2023-04-29T07:49:42;95841.50;;;13.30;85.31
76998;BME280;65930;48.874;10.734;2023-04-29T07:52:11;95818.13;;;13.00;85.05
76998;BME280;65930;48.874;10.734;2023-04-29T07:54:39;95834.22;;;12.86;85.48
76998;BME280;65930;48.874;10.734;2023-04-29T07:57:09;95832.97;;;12.90;85.34
76998;BME280;65930;48.874;10.734;2023-04-29T07:59:38;95851.09;;;12.98;85.74
76998;BME280;65930;48.874;10.734;2023-04-29T08:02:07;95848.31;;;12.98;85.73
76998;BME280;65930;48.874;10.734;2023-04-29T08:04:38;95863.63;;;13.13;82.81
76998;BME280;65930;48.874;10.734;2023-04-29T08:07:07;95845.59;;;13.21;80.81
76998;BME280;65930;48.874;10.734;2023-04-29T08:09:36;95824.34;;;13.08;81.58
76998;BME280;65930;48.874;10.734;2023-04-29T08:12:04;95843.28;;;13.16;80.98
76998;BME280;65930;48.874;10.734;2023-04-29T08:14:35;95860.59;;;13.28;82.50
76998;BME280;65930;48.874;10.734;2023-04-29T08:17:03;95850.53;;;13.10;82.52
76998;BME280;65930;48.874;10.734;2023-04-29T08:19:33;95868.44;;;13.09;82.89
76998;BME280;65930;48.874;10.734;2023-04-29T08:22:01;95859.75;;;13.31;84.25
76998;BME280;65930;48.874;10.734;2023-04-29T08:24:31;95856.13;;;13.57;82.58
76998;BME280;65930;48.874;10.734;2023-04-29T08:27:00;95859.09;;;13.46;81.70
76998;BME280;65930;48.874;10.734;2023-04-29T08:29:30;95859.97;;;13.43;81.78
76998;BME280;65930;48.874;10.734;2023-04-29T08:32:02;95888.06;;;13.49;82.57
76998;BME280;65930;48.874;10.734;2023-04-29T08:34:30;95869.34;;;13.53;82.08
76998;BME280;65930;48.874;10.734;2023-04-29T08:37:01;95850.34;;;13.67;79.57
76998;BME280;65930;48.874;10.734;2023-04-29T08:39:30;95846.94;;;13.37;77.77
76998;BME280;65930;48.874;10.734;2023-04-29T08:41:58;95859.81;;;13.27;79.27
76998;BME280;65930;48.874;10.734;2023-04-29T08:44:28;95880.69;;;13.39;79.23
76998;BME280;65930;48.874;10.734;2023-04-29T08:47:01;95883.59;;;13.32;79.14
76998;BME280;65930;48.874;10.734;2023-04-29T08:49:30;95872.78;;;13.10;80.13
76998;BME280;65930;48.874;10.734;2023-04-29T08:52:00;95861.09;;;12.96;82.68
76998;BME280;65930;48.874;10.734;2023-04-29T08:54:30;95865.13;;;12.91;81.73
76998;BME280;65930;48.874;10.734;2023-04-29T08:56:59;95867.84;;;12.95;82.15
76998;BME280;65930;48.874;10.734;2023-04-29T08:59:29;95874.66;;;12.90;82.40
76998;BME280;65930;48.874;10.734;2023-04-29T09:02:01;95900.81;;;12.96;82.76
76998;BME280;65930;48.874;10.734;2023-04-29T09:04:41;95887.00;;;12.89;83.60
76998;BME280;65930;48.874;10.734;2023-04-29T09:07:16;95899.97;;;12.99;82.04
76998;BME280;65930;48.874;10.734;2023-04-29T09:09:48;95877.91;;;13.15;81.98
76998;BME280;65930;48.874;10.734;2023-04-29T09:12:17;95906.69;;;13.29;79.36
76998;BME280;65930;48.874;10.734;2023-04-29T09:15:02;95889.75;;;13.19;79.01
76998;BME280;65930;48.874;10.734;2023-04-29T09:17:49;95905.38;;;13.10;77.47
76998;BME280;65930;48.874;10.734;2023-04-29T09:20:33;95911.53;;;13.25;76.07
76998;BME280;65930;48.874;10.734;2023-04-29T09:23:02;95901.22;;;13.21;76.30
76998;BME280;65930;48.874;10.734;2023-04-29T09:25:56;95923.03;;;13.50;75.67
76998;BME280;65930;48.874;10.734;2023-04-29T09:28:29;95931.38;;;13.73;76.67
76998;BME280;65930;48.874;10.734;2023-04-29T09:31:26;95897.88;;;13.34;76.05
76998;BME280;65930;48.874;10.734;2023-04-29T09:34:14;95895.34;;;13.16;77.76
76998;BME280;65930;48.874;10.734;2023-04-29T09:40:28;95888.84;;;12.99;76.58
76998;BME280;65930;48.874;10.734;2023-04-29T09:43:13;95913.38;;;13.04;75.98
76998;BME280;65930;48.874;10.734;2023-04-29T09:45:47;95895.66;;;12.95;75.25
76998;BME280;65930;48.874;10.734;2023-04-29T09:48:16;95911.22;;;13.19;76.13
76998;BME280;65930;48.874;10.734;2023-04-29T09:51:04;95903.78;;;13.09;75.24
76998;BME280;65930;48.874;10.734;2023-04-29T09:53:32;95929.41;;;13.23;75.73
76998;BME280;65930;48.874;10.734;2023-04-29T09:56:12;95911.69;;;13.14;74.55
76998;BME280;65930;48.874;10.734;2023-04-29T09:58:50;95924.97;;;13.30;74.23
76998;BME280;65930;48.874;10.734;2023-04-29T10:01:21;95924.69;;;13.20;73.34
76998;BME280;65930;48.874;10.734;2023-04-29T10:04:06;95897.16;;;13.30;73.68
76998;BME280;65930;48.874;10.734;2023-04-29T10:06:40;95903.22;;;13.48;73.49
76998;BME280;65930;48.874;10.734;2023-04-29T10:09:12;95928.13;;;13.55;73.10
76998;BME280;65930;48.874;10.734;2023-04-29T10:11:43;95920.63;;;13.52;74.44
76998;BME280;65930;48.874;10.734;2023-04-29T10:14:14;95943.88;;;13.65;73.30
76998;BME280;65930;48.874;10.734;2023-04-29T10:16:46;95930.97;;;13.51;72.47
76998;BME280;65930;48.874;10.734;2023-04-29T10:19:23;95901.72;;;13.40;73.39
76998;BME280;65930;48.874;10.734;2023-04-29T10:21:58;95936.28;;;13.42;73.51
76998;BME280;65930;48.874;10.734;2023-04-29T10:24:28;95952.91;;;13.46;73.43
76998;BME280;65930;48.874;10.734;2023-04-29T10:26:57;95947.34;;;13.46;73.00
76998;BME280;65930;48.874;10.734;2023-04-29T10:29:29;95912.03;;;13.43;72.36
76998;BME280;65930;48.874;10.734;2023-04-29T10:32:02;95937.31;;;13.52;72.27
76998;BME280;65930;48.874;10.734;2023-04-29T10:34:32;95931.03;;;13.48;73.43
76998;BME280;65930;48.874;10.734;2023-04-29T10:37:08;95933.81;;;13.48;73.71
76998;BME280;65930;48.874;10.734;2023-04-29T10:39:49;95923.34;;;13.02;75.36
76998;BME280;65930;48.874;10.734;2023-04-29T10:42:41;95939.16;;;13.08;76.75
76998;BME280;65930;48.874;10.734;2023-04-29T10:45:21;95945.91;;;13.07;74.80
76998;BME280;65930;48.874;10.734;2023-04-29T10:48:11;95950.72;;;13.03;75.88
76998;BME280;65930;48.874;10.734;2023-04-29T10:51:01;95948.94;;;13.20;74.93
76998;BME280;65930;48.874;10.734;2023-04-29T10:53:58;95930.88;;;13.05;75.36
76998;BME280;65930;48.874;10.734;2023-04-29T10:56:41;95962.06;;;13.46;74.59
76998;BME280;65930;48.874;10.734;2023-04-29T10:59:44;95933.34;;;13.26;73.06
76998;BME280;65930;48.874;10.734;2023-04-29T11:02:14;95931.09;;;13.17;72.88
76998;BME280;65930;48.874;10.734;2023-04-29T11:05:08;95940.13;;;13.75;72.69
76998;BME280;65930;48.874;10.734;2023-04-29T11:07:55;95933.75;;;13.98;72.65
76998;BME280;65930;48.874;10.734;2023-04-29T11:10:36;95938.28;;;13.88;72.45
76998;BME280;65930;48.874;10.734;2023-04-29T11:13:23;95920.16;;;13.80;72.71
76998;BME280;65930;48.874;10.734;2023-04-29T11:16:03;95923.25;;;13.36;71.55
76998;BME280;65930;48.874;10.734;2023-04-29T11:19:07;95941.06;;;13.42;71.73
76998;BME280;65930;48.874;10.734;2023-04-29T11:21:44;95931.34;;;13.27;71.62
76998;BME280;65930;48.874;10.734;2023-04-29T11:24:14;95944.53;;;13.22;71.63
76998;BME280;65930;48.874;10.734;2023-04-29T11:26:44;95924.69;;;13.20;71.65
76998;BME280;65930;48.874;10.734;2023-04-29T11:29:18;95952.13;;;13.45;71.13
76998;BME280;65930;48.874;10.734;2023-04-29T11:31:57;95946.16;;;13.47;70.76
76998;BME280;65930;48.874;10.734;2023-04-29T11:34:31;95947.59;;;13.55;70.00
76998;BME280;65930;48.874;10.734;2023-04-29T11:38:00;95942.22;;;13.67;70.37
76998;BME280;65930;48.874;10.734;2023-04-29T11:40:50;95957.22;;;13.50;70.82
76998;BME280;65930;48.874;10.734;2023-04-29T11:43:59;95948.41;;;13.29;71.27
76998;BME280;65930;48.874;10.734;2023-04-29T11:47:02;95947.59;;;13.55;72.00
76998;BME280;65930;48.874;10.734;2023-04-29T11:50:04;95959.94;;;13.77;71.28
76998;BME280;65930;48.874;10.734;2023-04-29T11:52:53;95964.44;;;13.71;69.92
76998;BME280;65930;48.874;10.734;2023-04-29T11:55:55;95942.88;;;13.52;69.39
76998;BME280;65930;48.874;10.734;2023-04-29T11:58:26;95945.97;;;13.57;69.54
76998;BME280;65930;48.874;10.734;2023-04-29T12:01:08;95942.75;;;13.59;69.95
76998;BME280;65930;48.874;10.734;2023-04-29T12:03:43;95962.00;;;13.50;69.27
76998;BME280;65930;48.874;10.734;2023-04-29T12:06:14;95972.78;;;13.48;70.68
76998;BME280;65930;48.874;10.734;2023-04-29T12:29:32;95978.34;;;13.48;73.37
76998;BME280;65930;48.874;10.734;2023-04-29T12:48:52;95994.94;;;14.25;67.82
76998;BME280;65930;48.874;10.734;2023-04-29T12:51:20;95984.41;;;14.13;70.12
76998;BME280;65930;48.874;10.734;2023-04-29T12:53:51;95991.16;;;14.35;68.91
76998;BME280;65930;48.874;10.734;2023-04-29T12:56:19;95990.44;;;14.54;67.09
76998;BME280;65930;48.874;10.734;2023-04-29T12:58:48;95990.56;;;14.67;66.18
76998;BME280;65930;48.874;10.734;2023-04-29T13:01:16;95999.00;;;14.63;68.03
76998;BME280;65930;48.874;10.734;2023-04-29T13:03:44;95990.66;;;14.63;68.18
76998;BME280;65930;48.874;10.734;2023-04-29T13:06:14;95995.94;;;14.34;68.49
76998;BME280;65930;48.874;10.734;2023-04-29T13:08:43;95983.94;;;14.18;68.51
76998;BME280;65930;48.874;10.734;2023-04-29T13:11:12;95990.72;;;13.93;69.80
76998;BME280;65930;48.874;10.734;2023-04-29T13:13:40;95993.97;;;13.88;69.52
76998;BME280;65930;48.874;10.734;2023-04-29T13:16:09;95984.88;;;13.61;70.39
76998;BME280;65930;48.874;10.734;2023-04-29T13:18:37;95973.84;;;13.54;70.04
76998;BME280;65930;48.874;10.734;2023-04-29T13:21:05;95987.41;;;13.52;70.78
76998;BME280;65930;48.874;10.734;2023-04-29T13:23:35;95999.44;;;13.45;73.04
76998;BME280;65930;48.874;10.734;2023-04-29T13:26:04;95998.63;;;13.45;72.42
76998;BME280;65930;48.874;10.734;2023-04-29T13:28:34;95982.28;;;13.23;73.01
76998;BME280;65930;48.874;10.734;2023-04-29T13:31:03;95990.16;;;13.29;73.64
76998;BME280;65930;48.874;10.734;2023-04-29T13:33:31;95979.97;;;13.18;73.57
76998;BME280;65930;48.874;10.734;2023-04-29T13:35:59;95982.75;;;13.18;74.12
76998;BME280;65930;48.874;10.734;2023-04-29T13:38:30;95989.50;;;13.17;74.30
76998;BME280;65930;48.874;10.734;2023-04-29T13:41:02;95995.97;;;13.11;74.80
76998;BME280;65930;48.874;10.734;2023-04-29T13:43:37;95982.53;;;13.02;73.95
76998;BME280;65930;48.874;10.734;2023-04-29T13:46:06;95998.53;;;12.95;73.64
76998;BME280;65930;48.874;10.734;2023-04-29T13:48:34;95987.25;;;13.05;73.70
76998;BME280;65930;48.874;10.734;2023-04-29T13:51:05;96000.91;;;12.96;74.31
76998;BME280;65930;48.874;10.734;2023-04-29T13:53:37;95996.81;;;13.04;74.10
76998;BME280;65930;48.874;10.734;2023-04-29T13:56:26;95986.16;;;12.99;71.80